Time;durP1;ratioP1;P1;durP2;ratioP2;P2;SDS_P1;SDS_P2;PMS_P1;PMS_P2;Temp;Humidity;BMP_temperature;BMP_pressure;BME280_temperature;BME280_humidity;BME280_pressure;Samples;Min_cycle;Max_cycle;Signal;HPM_P1;HPM_P2
2024/01/16 00:01:57;;;;;;;13.63;3.13;;;2.40;99.90;;;1.98;100.00;100328.38;5240423;28;20057;-47
2024/01/16 00:04:30;;;;;;;7.60;2.20;;;2.40;99.90;;;1.96;100.00;100327.41;5242606;28;20051;-46
2024/01/16 00:07:05;;;;;;;7.22;2.25;;;2.40;99.90;;;1.94;100.00;100318.69;5243374;28;20048;-47
2024/01/16 00:09:37;;;;;;;11.30;2.85;;;2.40;99.90;;;1.88;100.00;100325.22;5234702;28;20422;-49
2024/01/16 00:12:10;;;;;;;6.28;2.25;;;2.30;99.90;;;1.87;100.00;100333.72;5235601;28;20064;-46
2024/01/16 00:14:43;;;;;;;7.30;2.08;;;2.40;99.90;;;1.92;100.00;100331.44;5230987;28;20053;-47
2024/01/16 00:17:16;;;;;;;3.90;2.65;;;2.40;99.90;;;1.94;100.00;100334.09;5236259;28;20053;-47
2024/01/16 00:19:49;;;;;;;4.35;2.25;;;2.40;99.90;;;1.96;100.00;100325.72;5237461;28;20848;-46
2024/01/16 00:22:22;;;;;;;6.63;2.63;;;2.40;99.90;;;1.98;100.00;100325.81;5245420;28;20511;-47
2024/01/16 00:24:55;;;;;;;5.80;3.08;;;2.40;99.90;;;1.96;100.00;100332.53;5228029;28;20067;-46
2024/01/16 00:27:27;;;;;;;4.35;2.78;;;2.40;99.90;;;1.97;100.00;100334.31;5237758;28;20107;-46
2024/01/16 00:29:59;;;;;;;11.18;3.28;;;2.40;99.90;;;1.96;100.00;100333.44;5234942;28;20098;-48
2024/01/16 00:32:32;;;;;;;14.10;2.75;;;2.40;99.90;;;1.98;100.00;100336.09;5245035;28;20541;-46
2024/01/16 00:35:05;;;;;;;7.30;1.90;;;2.40;99.90;;;1.97;100.00;100340.34;5239069;28;20049;-48
2024/01/16 00:37:39;;;;;;;8.20;3.65;;;2.40;99.90;;;2.00;100.00;100349.91;5243239;28;20046;-48
2024/01/16 00:40:13;;;;;;;7.93;2.53;;;2.40;99.90;;;2.02;100.00;100350.88;5237377;28;20080;-49
2024/01/16 00:42:46;;;;;;;5.32;2.35;;;2.40;99.90;;;2.06;100.00;100350.28;5240101;28;20499;-47
2024/01/16 00:45:18;;;;;;;5.30;3.28;;;2.40;99.90;;;2.03;100.00;100361.28;5238673;28;20049;-49
2024/01/16 00:47:51;;;;;;;6.80;2.65;;;2.50;99.90;;;2.05;100.00;100364.84;5246359;28;20511;-47
2024/01/16 00:50:24;;;;;;;8.35;2.88;;;2.40;99.90;;;2.06;100.00;100376.00;5241097;28;20041;-47
2024/01/16 00:52:58;;;;;;;8.48;3.00;;;2.50;99.90;;;2.04;100.00;100372.47;5244972;28;20055;-48
2024/01/16 00:55:30;;;;;;;5.40;2.78;;;2.40;99.90;;;2.03;100.00;100370.69;5238995;28;20040;-46
2024/01/16 00:58:03;;;;;;;9.88;2.42;;;2.40;99.90;;;2.03;100.00;100375.81;5231052;28;20060;-49
2024/01/16 01:00:37;;;;;;;3.17;2.65;;;2.40;99.90;;;2.04;100.00;100377.59;5226547;28;20045;-47
2024/01/16 01:03:09;;;;;;;5.93;2.60;;;2.40;99.90;;;1.96;100.00;100383.97;5235900;28;20529;-48
2024/01/16 01:05:42;;;;;;;4.15;2.25;;;2.40;99.90;;;1.96;100.00;100389.09;5231996;28;20045;-47
2024/01/16 01:08:16;;;;;;;3.30;1.88;;;2.40;99.90;;;1.94;100.00;100376.13;5235677;28;20519;-47
2024/01/16 01:10:48;;;;;;;9.57;2.80;;;2.40;99.90;;;1.95;100.00;100382.16;5231881;28;20055;-46
2024/01/16 01:13:21;;;;;;;5.97;3.10;;;2.40;99.90;;;1.93;100.00;100389.78;5240947;28;20143;-47
2024/01/16 01:15:53;;;;;;;4.95;1.88;;;2.40;99.90;;;1.85;100.00;100394.44;5246233;28;20301;-46
2024/01/16 01:18:26;;;;;;;3.33;2.25;;;2.30;99.90;;;1.79;100.00;100391.47;5248302;28;20044;-47
2024/01/16 01:20:58;;;;;;;5.15;2.55;;;2.30;99.90;;;1.78;100.00;100392.28;5245780;28;20418;-47
2024/01/16 01:23:32;;;;;;;2.75;2.22;;;2.20;99.90;;;1.79;100.00;100400.88;5246506;28;20052;-45
2024/01/16 01:26:05;;;;;;;7.47;2.83;;;2.30;99.90;;;1.76;100.00;100396.44;5233181;28;20045;-47
2024/01/16 01:28:39;;;;;;;7.70;2.13;;;2.20;99.90;;;1.78;100.00;100391.41;5249002;28;20091;-47
2024/01/16 01:31:12;;;;;;;3.55;2.00;;;2.20;99.90;;;1.75;100.00;100393.75;5234330;28;20067;-50
2024/01/16 01:33:45;;;;;;;4.13;1.85;;;2.20;99.90;;;1.72;100.00;100394.47;5241669;28;20049;-47
2024/01/16 01:36:17;;;;;;;4.65;1.67;;;2.20;99.90;;;1.74;100.00;100399.69;5241777;28;20040;-46
2024/01/16 01:38:51;;;;;;;3.22;2.05;;;2.20;99.90;;;1.72;100.00;100391.88;5249284;28;20055;-48
2024/01/16 01:41:23;;;;;;;4.53;1.80;;;2.20;99.90;;;1.75;100.00;100393.75;5228001;28;20048;-46
2024/01/16 01:43:55;;;;;;;2.50;2.05;;;2.20;99.90;;;1.76;100.00;100393.88;5239093;28;20053;-46
2024/01/16 01:46:29;;;;;;;5.50;2.50;;;2.20;99.90;;;1.75;100.00;100397.22;5245661;28;20052;-47
2024/01/16 01:49:02;;;;;;;5.55;2.25;;;2.20;99.90;;;1.77;100.00;100395.66;5239622;28;20496;-46
2024/01/16 01:51:35;;;;;;;9.23;2.03;;;2.20;99.90;;;1.76;100.00;100393.88;5246389;28;20057;-49
2024/01/16 01:54:09;;;;;;;7.15;2.17;;;2.20;99.90;;;1.78;100.00;100399.09;5228226;28;20043;-48
2024/01/16 01:56:45;;;;;;;2.38;1.63;;;2.20;99.90;;;1.78;100.00;100397.41;5241659;28;20508;-47
2024/01/16 01:59:19;;;;;;;3.58;1.80;;;2.20;99.90;;;1.79;100.00;100396.63;5242640;28;20053;-48
2024/01/16 02:01:53;;;;;;;14.95;2.97;;;2.20;99.90;;;1.76;100.00;100404.16;5244010;28;20067;-47
2024/01/16 02:04:28;;;;;;;11.00;2.45;;;2.20;99.90;;;1.74;100.00;100410.84;5251612;28;20071;-47
2024/01/16 02:07:01;;;;;;;8.43;2.47;;;2.20;99.90;;;1.75;100.00;100414.31;5247628;28;20040;-46
2024/01/16 02:09:37;;;;;;;2.00;1.55;;;2.20;99.90;;;1.75;100.00;100419.44;5246847;28;20045;-47
2024/01/16 02:12:10;;;;;;;2.70;1.95;;;2.20;99.90;;;1.74;100.00;100421.13;5242824;28;20666;-46
2024/01/16 02:14:42;;;;;;;6.03;2.40;;;2.20;99.90;;;1.75;100.00;100420.34;5237644;28;20052;-47
2024/01/16 02:17:15;;;;;;;3.58;2.08;;;2.20;99.90;;;1.75;100.00;100425.47;5243480;28;20178;-50
2024/01/16 02:19:47;;;;;;;4.35;2.42;;;2.20;99.90;;;1.74;100.00;100423.69;5249312;28;20084;-46
2024/01/16 02:22:25;;;;;;;5.82;3.03;;;2.20;99.90;;;1.72;100.00;100422.72;5233985;28;20048;-48
2024/01/16 02:24:59;;;;;;;6.38;1.90;;;2.20;99.90;;;1.68;100.00;100418.16;5242458;28;20043;-46
2024/01/16 02:27:31;;;;;;;4.55;2.22;;;2.10;99.90;;;1.66;100.00;100414.63;5230138;28;20063;-45
2024/01/16 02:30:06;;;;;;;4.78;2.50;;;2.10;99.90;;;1.69;100.00;100425.09;5234033;28;20128;-48
2024/01/16 02:32:39;;;;;;;7.05;1.80;;;2.10;99.90;;;1.70;100.00;100415.72;5248698;28;20067;-48
2024/01/16 02:35:11;;;;;;;4.70;2.63;;;2.10;99.90;;;1.67;100.00;100423.22;5240521;28;20029;-46
2024/01/16 02:37:43;;;;;;;9.82;2.92;;;2.10;99.90;;;1.65;100.00;100425.69;5243401;28;20060;-45
2024/01/16 02:40:18;;;;;;;5.07;3.17;;;2.10;99.90;;;1.64;100.00;100421.34;5237907;28;20056;-46
2024/01/16 02:42:50;;;;;;;3.47;1.98;;;2.10;99.90;;;1.62;100.00;100417.78;5242993;28;20462;-48
2024/01/16 02:45:23;;;;;;;3.70;2.05;;;2.10;99.90;;;1.58;100.00;100420.97;5239927;28;20045;-48
2024/01/16 02:47:56;;;;;;;12.98;2.60;;;2.00;99.90;;;1.56;100.00;100409.66;5225047;28;20059;-46
2024/01/16 02:50:29;;;;;;;3.00;2.25;;;2.00;99.90;;;1.57;100.00;100414.06;5241159;28;20049;-50
2024/01/16 02:53:03;;;;;;;5.57;2.67;;;2.00;99.90;;;1.56;100.00;100417.38;5224652;28;20049;-47
2024/01/16 02:55:37;;;;;;;3.85;2.60;;;2.00;99.90;;;1.58;100.00;100410.69;5246602;28;20053;-47
2024/01/16 02:58:10;;;;;;;4.38;3.25;;;2.00;99.90;;;1.57;100.00;100417.50;5238354;28;20060;-48
2024/01/16 03:00:43;;;;;;;7.93;2.17;;;2.10;99.90;;;1.63;100.00;100405.06;5242139;28;20510;-48
2024/01/16 03:03:15;;;;;;;8.18;2.10;;;2.00;99.90;;;1.65;100.00;100407.72;5242596;28;20703;-47
2024/01/16 03:05:48;;;;;;;6.28;3.22;;;2.10;99.90;;;1.67;100.00;100403.56;5232295;28;20117;-47
2024/01/16 03:08:21;;;;;;;3.40;1.90;;;2.10;99.90;;;1.73;100.00;100410.75;5232923;28;20113;-46
2024/01/16 03:10:56;;;;;;;3.67;2.30;;;2.10;99.90;;;1.73;100.00;100414.22;5238150;28;20072;-47
2024/01/16 03:13:29;;;;;;;3.72;2.08;;;2.10;99.90;;;1.69;100.00;100414.81;5244691;28;20056;-47
2024/01/16 03:16:08;;;;;;;4.60;1.52;;;2.10;99.90;;;1.72;100.00;100417.59;5236798;28;20068;-49
2024/01/16 03:18:41;;;;;;;4.43;2.30;;;2.10;99.90;;;1.72;100.00;100417.59;5235386;28;20048;-47
2024/01/16 03:21:15;;;;;;;3.15;2.55;;;2.10;99.90;;;1.72;100.00;100415.03;5238619;28;20044;-47
2024/01/16 03:23:47;;;;;;;4.53;3.00;;;2.20;99.90;;;1.70;100.00;100421.75;5245518;28;20101;-46
2024/01/16 03:26:21;;;;;;;10.05;2.33;;;2.20;99.90;;;1.72;100.00;100422.72;5242119;28;20037;-47
2024/01/16 03:28:53;;;;;;;4.55;3.00;;;2.20;99.90;;;1.73;100.00;100419.34;5239711;28;20041;-46
2024/01/16 03:31:26;;;;;;;5.40;2.15;;;2.10;99.90;;;1.71;100.00;100408.09;5244255;28;20041;-47
2024/01/16 03:33:59;;;;;;;8.50;3.13;;;2.20;99.90;;;1.73;100.00;100405.63;5242942;28;20140;-48
2024/01/16 03:36:31;;;;;;;4.45;2.78;;;2.10;99.90;;;1.70;100.00;100419.19;5244310;28;20048;-48
2024/01/16 03:39:04;;;;;;;3.03;1.90;;;2.20;99.90;;;1.68;100.00;100413.03;5239139;28;20049;-47
2024/01/16 03:41:37;;;;;;;3.22;1.95;;;2.10;99.90;;;1.67;100.00;100413.81;5233300;28;20561;-46
2024/01/16 03:44:10;;;;;;;8.77;3.13;;;2.10;99.90;;;1.68;100.00;100410.47;5224967;28;20045;-47
2024/01/16 03:46:42;;;;;;;5.72;2.28;;;2.10;99.90;;;1.70;100.00;100406.34;5240906;28;20049;-47
2024/01/16 03:49:15;;;;;;;5.00;2.38;;;2.10;99.90;;;1.67;100.00;100413.81;5240759;28;20053;-48
2024/01/16 03:51:47;;;;;;;4.95;2.67;;;2.10;99.90;;;1.67;100.00;100410.38;5238958;28;20512;-47
2024/01/16 03:54:20;;;;;;;5.30;2.53;;;2.10;99.90;;;1.65;100.00;100411.97;5239510;28;20072;-47
2024/01/16 03:56:55;;;;;;;8.02;3.70;;;2.10;99.90;;;1.59;100.00;100412.47;5228569;28;20503;-46
2024/01/16 03:59:28;;;;;;;6.00;2.65;;;2.10;99.90;;;1.59;100.00;100413.34;5241831;28;20053;-48
2024/01/16 04:02:03;;;;;;;3.97;2.20;;;2.10;99.90;;;1.64;100.00;100411.06;5241222;28;20051;-47
2024/01/16 04:04:36;;;;;;;6.13;2.95;;;2.10;99.90;;;1.63;100.00;100410.19;5240955;28;20037;-46
2024/01/16 04:07:09;;;;;;;4.30;2.63;;;2.00;99.90;;;1.66;100.00;100412.06;5239842;28;20450;-48
2024/01/16 04:09:43;;;;;;;4.95;1.90;;;2.10;99.90;;;1.68;100.00;100404.44;5241896;28;20055;-47
2024/01/16 04:12:16;;;;;;;3.83;2.47;;;2.10;99.90;;;1.67;100.00;100411.25;5239178;28;20094;-47
2024/01/16 04:14:49;;;;;;;4.78;2.67;;;2.10;99.90;;;1.63;100.00;100404.16;5243107;28;20041;-47
2024/01/16 04:17:22;;;;;;;6.05;2.65;;;2.10;99.90;;;1.60;100.00;100401.38;5238362;28;20049;-48
2024/01/16 04:19:54;;;;;;;4.28;2.00;;;2.10;99.90;;;1.63;100.00;100402.47;5242704;28;20052;-48
2024/01/16 04:22:27;;;;;;;10.05;3.03;;;2.00;99.90;;;1.69;100.00;100404.53;5238762;28;20049;-48
2024/01/16 04:24:59;;;;;;;7.05;2.78;;;2.10;99.90;;;1.76;100.00;100400.66;5238188;28;20064;-47
2024/01/16 04:27:33;;;;;;;5.25;3.13;;;2.20;99.90;;;1.77;100.00;100403.34;5240008;28;20523;-46
2024/01/16 04:30:07;;;;;;;6.82;3.50;;;2.20;99.90;;;1.80;100.00;100400.97;5231978;28;20530;-47
2024/01/16 04:32:40;;;;;;;7.38;2.15;;;2.20;99.90;;;1.83;100.00;100408.88;5240297;28;20075;-47
2024/01/16 04:35:13;;;;;;;6.38;2.70;;;2.20;99.90;;;1.86;100.00;100415.88;5227126;28;20037;-49
2024/01/16 04:37:45;;;;;;;2.90;2.08;;;2.20;99.90;;;1.88;100.00;100406.59;5240098;28;20055;-48
2024/01/16 04:40:18;;;;;;;4.65;2.50;;;2.20;99.90;;;1.89;100.00;100411.84;5240666;28;20040;-47
2024/01/16 04:42:52;;;;;;;4.72;2.95;;;2.30;99.90;;;1.89;100.00;100411.84;5224790;28;20044;-48
2024/01/16 04:45:24;;;;;;;5.15;2.42;;;2.30;99.90;;;1.88;100.00;100406.59;5232692;28;20140;-47
2024/01/16 04:47:57;;;;;;;5.13;2.25;;;2.20;99.90;;;1.89;100.00;100416.97;5237572;28;20474;-49
2024/01/16 04:50:32;;;;;;;11.88;2.70;;;2.30;99.90;;;1.88;100.00;100410.03;5237674;28;20063;-50
2024/01/16 04:53:05;;;;;;;3.10;1.98;;;2.20;99.90;;;1.87;100.00;100405.69;5241604;28;20546;-47
2024/01/16 04:55:38;;;;;;;6.32;2.35;;;2.30;99.90;;;1.87;100.00;100404.81;5238175;28;21435;-47
2024/01/16 04:58:12;;;;;;;2.53;2.22;;;2.20;99.90;;;1.86;100.00;100406.50;5238871;28;20045;-47
2024/01/16 05:00:44;;;;;;;4.00;2.67;;;2.20;99.90;;;1.86;100.00;100403.94;5239203;28;20055;-47
2024/01/16 05:03:16;;;;;;;4.93;2.83;;;2.20;99.90;;;1.86;100.00;100409.06;5245407;28;20041;-47
2024/01/16 05:05:49;;;;;;;5.07;2.40;;;2.20;99.90;;;1.87;100.00;100409.94;5239536;28;20286;-47
2024/01/16 05:08:21;;;;;;;5.65;2.80;;;2.20;99.90;;;1.86;100.00;100398.78;5226730;28;20049;-47
2024/01/16 05:10:54;;;;;;;3.05;2.20;;;2.20;99.90;;;1.87;100.00;100399.66;5219923;28;20053;-47
2024/01/16 05:13:28;;;;;;;3.28;2.08;;;2.20;99.90;;;1.88;100.00;100396.31;5238100;28;20041;-46
2024/01/16 05:16:01;;;;;;;5.93;2.72;;;2.20;99.90;;;1.89;100.00;100401.56;5236368;28;20033;-46
2024/01/16 05:18:35;;;;;;;5.15;2.55;;;2.20;99.90;;;1.90;100.00;100405.91;5245132;28;20053;-50
2024/01/16 05:21:07;;;;;;;3.22;1.67;;;2.30;99.90;;;1.92;100.00;100397.41;5236910;28;20045;-46
2024/01/16 05:23:40;;;;;;;3.72;1.65;;;2.30;99.90;;;1.92;100.00;100402.53;5237353;28;20088;-46
2024/01/16 05:26:13;;;;;;;6.15;2.42;;;2.30;99.90;;;1.88;100.00;100397.19;5236421;28;20506;-46
2024/01/16 05:28:47;;;;;;;6.05;2.50;;;2.30;99.90;;;1.88;100.00;100392.03;5242917;28;20045;-46
2024/01/16 05:31:20;;;;;;;3.28;2.33;;;2.20;99.90;;;1.88;100.00;100386.91;5240656;28;20044;-47
2024/01/16 05:33:53;;;;;;;13.07;2.70;;;2.20;99.90;;;1.87;100.00;100390.28;5243995;28;20076;-47
2024/01/16 05:36:25;;;;;;;8.25;2.92;;;2.20;99.90;;;1.90;100.00;100394.75;5246693;28;20087;-49
2024/01/16 05:38:58;;;;;;;3.22;1.92;;;2.20;99.90;;;1.89;100.00;100388.72;5243992;28;20044;-46
2024/01/16 05:41:34;;;;;;;4.22;2.03;;;2.20;99.90;;;1.89;100.00;100396.44;5240627;28;20041;-46
2024/01/16 05:44:08;;;;;;;6.90;2.33;;;2.30;99.90;;;1.93;100.00;100394.03;5234725;28;20082;-46
2024/01/16 05:46:40;;;;;;;2.88;1.73;;;2.30;99.90;;;1.95;100.00;100387.28;5244729;28;20037;-46
2024/01/16 05:49:13;;;;;;;3.42;2.03;;;2.30;99.90;;;1.94;100.00;100391.53;5238398;28;20053;-48
2024/01/16 05:51:46;;;;;;;4.78;1.92;;;2.30;99.90;;;1.94;100.00;100385.53;5242152;28;20495;-46
2024/01/16 05:54:21;;;;;;;5.05;2.95;;;2.30;99.90;;;1.94;100.00;100385.53;5231445;28;20128;-47
2024/01/16 05:56:53;;;;;;;9.27;2.25;;;2.30;99.90;;;1.95;100.00;100379.59;5246659;28;20064;-45
2024/01/16 05:59:27;;;;;;;5.97;1.83;;;2.30;99.90;;;1.96;100.00;100374.56;5247217;28;20407;-47
2024/01/16 06:02:00;;;;;;;6.20;2.03;;;2.30;99.90;;;1.98;100.00;100374.66;5239604;28;20423;-47
2024/01/16 06:04:33;;;;;;;3.65;2.20;;;2.30;99.90;;;1.97;100.00;100370.31;5243664;28;20072;-50
2024/01/16 06:07:07;;;;;;;6.10;2.22;;;2.30;99.90;;;1.96;100.00;100369.41;5240351;28;20530;-47
2024/01/16 06:09:40;;;;;;;3.78;2.72;;;2.30;99.90;;;1.96;100.00;100373.69;5248383;28;20083;-46
2024/01/16 06:12:13;;;;;;;5.57;3.03;;;2.30;99.90;;;1.96;100.00;100379.69;5234745;28;20083;-48
2024/01/16 06:14:47;;;;;;;2.13;1.50;;;2.30;99.90;;;1.96;100.00;100376.25;5246792;28;20431;-46
2024/01/16 06:17:19;;;;;;;8.23;2.45;;;2.30;99.90;;;1.96;100.00;100371.09;5232830;28;20044;-47
2024/01/16 06:19:52;;;;;;;3.53;2.45;;;2.30;99.90;;;1.97;100.00;100378.03;5251127;28;20045;-48
2024/01/16 06:22:24;;;;;;;3.47;2.60;;;2.30;99.90;;;1.97;100.00;100383.16;5251919;28;20052;-47
2024/01/16 06:24:57;;;;;;;2.83;1.33;;;2.30;99.90;;;1.95;100.00;100380.47;5241436;28;20080;-49
2024/01/16 06:27:29;;;;;;;5.90;2.22;;;2.30;99.90;;;1.95;100.00;100384.72;5247565;28;20048;-50
2024/01/16 06:30:04;;;;;;;3.03;1.90;;;2.30;99.90;;;1.96;100.00;100389.09;5233638;28;20052;-47
2024/01/16 06:32:37;;;;;;;4.22;1.90;;;2.30;99.90;;;1.96;100.00;100381.38;5248985;28;20049;-46
2024/01/16 06:35:09;;;;;;;5.80;1.80;;;2.30;99.90;;;1.97;100.00;100390.88;5241865;28;20510;-48
2024/01/16 06:37:42;;;;;;;3.40;1.92;;;2.30;99.90;;;1.95;100.00;100383.03;5230528;28;20071;-47
2024/01/16 06:40:15;;;;;;;5.25;2.22;;;2.30;99.90;;;1.98;100.00;100387.50;5230099;28;20083;-49
2024/01/16 06:42:47;;;;;;;5.40;2.30;;;2.30;99.90;;;1.98;100.00;100388.38;5246407;28;20520;-48
2024/01/16 06:45:21;;;;;;;12.10;1.95;;;2.30;99.90;;;1.97;100.00;100380.59;5237532;28;20052;-47
2024/01/16 06:47:54;;;;;;;4.25;1.45;;;2.30;99.90;;;1.94;100.00;100386.41;5248146;28;20056;-47
2024/01/16 06:50:27;;;;;;;3.75;2.22;;;2.30;99.90;;;1.92;100.00;100382.88;5246564;28;20518;-46
2024/01/16 06:52:59;;;;;;;5.07;1.70;;;2.30;99.90;;;1.92;100.00;100387.13;5225516;28;20411;-47
2024/01/16 06:55:31;;;;;;;2.85;1.20;;;2.30;99.90;;;1.93;100.00;100386.31;5242310;28;20484;-46
2024/01/16 06:58:04;;;;;;;6.05;1.67;;;2.30;99.90;;;1.94;100.00;100386.41;5244886;28;20283;-47
2024/01/16 07:00:41;;;;;;;4.28;1.80;;;2.30;99.90;;;1.94;100.00;100388.97;5229210;28;20041;-49
2024/01/16 07:03:13;;;;;;;3.47;1.33;;;2.30;99.90;;;1.93;100.00;100389.78;5236855;28;20045;-46
2024/01/16 07:05:46;;;;;;;2.70;1.80;;;2.30;99.90;;;1.94;100.00;100395.81;5244650;28;20509;-46
2024/01/16 07:08:18;;;;;;;5.00;1.67;;;2.30;99.90;;;1.96;100.00;100399.38;5238887;28;20045;-46
2024/01/16 07:10:50;;;;;;;2.28;1.27;;;2.30;99.90;;;1.96;100.00;100395.13;5242428;28;20076;-47
2024/01/16 07:13:23;;;;;;;4.32;1.33;;;2.30;99.90;;;1.97;100.00;100404.59;5234384;28;20045;-47
2024/01/16 07:15:57;;;;;;;6.95;1.55;;;2.30;99.90;;;1.98;100.00;100400.34;5243420;28;20068;-46
2024/01/16 07:18:38;;;;;;;2.05;1.00;;;2.30;99.90;;;2.00;100.00;100414.19;5246358;28;20059;-48
2024/01/16 07:21:20;;;;;;;6.38;1.17;;;2.30;99.90;;;2.02;100.00;100402.31;5235362;28;20052;-46
2024/01/16 07:23:53;;;;;;;1.45;0.95;;;2.40;99.90;;;2.02;100.00;100404.88;5239377;28;20044;-47
2024/01/16 07:26:25;;;;;;;1.70;1.55;;;2.40;99.90;;;2.03;100.00;100417.84;5232883;28;20045;-47
2024/01/16 07:28:58;;;;;;;2.05;1.30;;;2.40;99.90;;;2.03;100.00;100416.97;5243241;28;20060;-47
2024/01/16 07:31:32;;;;;;;2.97;0.88;;;2.40;99.90;;;2.02;100.00;100421.22;5237067;28;20463;-48
2024/01/16 07:34:04;;;;;;;4.20;1.58;;;2.40;99.90;;;2.03;100.00;100427.25;5239877;28;20730;-47
2024/01/16 07:36:36;;;;;;;8.57;1.77;;;2.40;99.90;;;2.03;100.00;100432.38;5239327;28;20045;-47
2024/01/16 07:39:09;;;;;;;1.70;1.08;;;2.40;99.90;;;2.03;100.00;100422.09;5239578;28;20048;-46
2024/01/16 07:41:41;;;;;;;5.70;1.15;;;2.40;99.90;;;2.02;100.00;100431.50;5241947;28;20073;-47
2024/01/16 07:44:15;;;;;;;5.68;1.83;;;2.40;99.90;;;2.02;100.00;100435.72;5240047;28;20073;-47
2024/01/16 07:46:49;;;;;;;1.80;1.00;;;2.40;99.90;;;2.02;100.00;100435.72;5241086;28;20713;-47
2024/01/16 07:49:23;;;;;;;1.38;1.17;;;2.40;99.90;;;2.03;100.00;100433.28;5232957;28;20102;-46
2024/01/16 07:51:56;;;;;;;6.15;0.90;;;2.40;99.90;;;2.02;100.00;100436.66;5222289;28;20060;-46
2024/01/16 07:54:28;;;;;;;1.48;1.13;;;2.40;99.90;;;2.01;100.00;100433.94;5243785;28;20049;-47
2024/01/16 07:57:00;;;;;;;1.35;1.05;;;2.40;99.90;;;2.00;100.00;100434.75;5226576;28;20526;-48
2024/01/16 07:59:33;;;;;;;0.95;0.77;;;2.30;99.90;;;2.00;100.00;100437.31;5242154;28;20064;-47
2024/01/16 08:02:07;;;;;;;1.13;0.85;;;2.30;99.90;;;1.99;100.00;100425.25;5235675;28;20407;-46
2024/01/16 08:04:42;;;;;;;2.17;1.38;;;2.30;99.90;;;2.00;100.00;100438.22;5242155;28;20057;-47
2024/01/16 08:07:15;;;;;;;3.20;0.90;;;2.30;99.90;;;1.99;100.00;100431.28;5239085;28;20040;-46
2024/01/16 08:09:47;;;;;;;2.45;1.05;;;2.30;99.90;;;1.99;100.00;100436.44;5248780;28;20138;-47
2024/01/16 08:12:19;;;;;;;2.15;0.90;;;2.30;99.90;;;1.99;100.00;100440.69;5234791;28;20053;-48
2024/01/16 08:14:52;;;;;;;1.65;1.05;;;2.30;99.90;;;1.99;100.00;100443.25;5243755;28;20049;-47
2024/01/16 08:17:26;;;;;;;10.48;1.48;;;2.30;99.90;;;1.98;100.00;100444.06;5240617;28;20393;-48
2024/01/16 08:19:58;;;;;;;2.05;1.20;;;2.30;99.90;;;1.98;100.00;100441.50;5242196;28;20060;-45
2024/01/16 08:22:30;;;;;;;2.70;0.90;;;2.30;99.90;;;1.98;100.00;100444.94;5244897;28;20052;-48
2024/01/16 08:25:04;;;;;;;0.80;0.68;;;2.30;99.90;;;1.98;100.00;100444.06;5235611;28;20152;-46
2024/01/16 08:27:38;;;;;;;4.82;1.40;;;2.30;99.90;;;1.98;100.00;100444.94;5243476;28;20565;-46
2024/01/16 08:30:12;;;;;;;1.27;0.88;;;2.30;99.90;;;2.01;100.00;100455.41;5236823;28;20126;-46
2024/01/16 08:32:46;;;;;;;5.63;1.73;;;2.30;99.90;;;2.07;100.00;100444.63;5244420;28;20074;-49
2024/01/16 08:35:18;;;;;;;1.42;0.52;;;2.40;99.90;;;2.13;100.00;100448.47;5238146;28;20048;-47
2024/01/16 08:37:51;;;;;;;1.00;0.90;;;2.40;99.90;;;2.20;100.00;100447.16;5246737;28;20044;-46
2024/01/16 08:40:23;;;;;;;0.68;0.68;;;2.50;99.90;;;2.30;100.00;100446.97;5229846;28;20048;-46
2024/01/16 08:42:56;;;;;;;2.25;0.90;;;2.60;99.90;;;2.40;100.00;100459.56;5240475;28;20095;-46
2024/01/16 08:45:28;;;;;;;2.83;1.30;;;2.70;99.90;;;2.50;100.00;100462.72;5240981;28;20059;-48
2024/01/16 08:48:02;;;;;;;1.23;1.13;;;2.70;99.90;;;2.58;100.00;100461.50;5237943;28;20419;-48
2024/01/16 08:50:34;;;;;;;3.05;0.80;;;2.80;99.90;;;2.64;100.00;100467.03;5239288;28;20422;-50
2024/01/16 08:53:07;;;;;;;2.95;0.55;;;2.90;99.90;;;2.66;100.00;100460.28;5236506;28;20044;-47
2024/01/16 08:55:39;;;;;;;1.48;0.90;;;2.90;99.90;;;2.66;100.00;100460.28;5239591;28;20931;-46
2024/01/16 08:58:11;;;;;;;4.70;1.13;;;2.90;99.90;;;2.69;100.00;100460.50;5236565;28;20049;-46
2024/01/16 09:00:44;;;;;;;0.88;0.57;;;2.90;99.90;;;2.70;100.00;100472.56;5239817;28;20053;-47
2024/01/16 09:03:18;;;;;;;0.80;0.77;;;2.90;99.90;;;2.72;100.00;100468.38;5243594;28;20095;-46
2024/01/16 09:05:50;;;;;;;1.00;0.90;;;3.00;99.90;;;2.77;100.00;100472.13;5239959;28;21421;-46
2024/01/16 09:08:22;;;;;;;3.55;0.77;;;3.00;99.90;;;2.82;100.00;100472.41;5224519;28;20574;-47
2024/01/16 09:10:55;;;;;;;1.40;0.90;;;3.00;99.90;;;2.85;100.00;100478.63;5231598;28;20098;-47
2024/01/16 09:13:27;;;;;;;10.30;1.33;;;3.10;99.90;;;2.85;100.00;100468.31;5239834;28;20072;-49
2024/01/16 09:16:00;;;;;;;4.55;1.50;;;3.10;99.90;;;2.86;100.00;100471.78;5239923;28;20048;-48
2024/01/16 09:18:34;;;;;;;0.73;0.73;;;3.10;99.90;;;2.90;100.00;100482.38;5244555;28;20056;-48
2024/01/16 09:21:09;;;;;;;1.20;1.20;;;3.10;99.90;;;2.94;100.00;100479.19;5238851;28;20553;-48
2024/01/16 09:23:41;;;;;;;4.18;1.33;;;3.20;99.90;;;2.98;100.00;100478.56;5242113;28;20057;-47
2024/01/16 09:26:14;;;;;;;2.13;1.10;;;3.20;99.90;;;3.04;100.00;100484.88;5228321;28;20079;-47
2024/01/16 09:28:46;;;;;;;3.30;1.15;;;3.20;99.90;;;3.12;100.00;100488.78;5244403;28;20067;-49
2024/01/16 09:31:18;;;;;;;2.83;1.10;;;3.30;99.90;;;3.15;100.00;100489.88;5229878;28;20056;-47
2024/01/16 09:33:52;;;;;;;3.28;1.23;;;3.30;99.90;;;3.16;100.00;100495.91;5244204;28;20057;-47
2024/01/16 09:36:24;;;;;;;3.08;1.30;;;3.30;99.90;;;3.16;100.00;100491.66;5235450;28;20052;-48
2024/01/16 09:38:57;;;;;;;0.95;0.90;;;3.40;99.90;;;3.18;100.00;100494.31;5243761;28;20044;-47
2024/01/16 09:41:32;;;;;;;2.05;1.20;;;3.40;99.90;;;3.17;100.00;100498.56;5243194;28;20052;-47
2024/01/16 09:44:06;;;;;;;0.98;0.90;;;3.30;99.90;;;3.17;100.00;100493.44;5231794;28;20462;-47
2024/01/16 09:46:41;;;;;;;2.88;1.42;;;3.40;99.90;;;3.16;100.00;100501.06;5244765;28;20037;-47
2024/01/16 09:49:19;;;;;;;2.60;0.88;;;3.40;99.90;;;3.14;100.00;100502.69;5240924;28;20458;-46
2024/01/16 09:51:51;;;;;;;3.63;1.60;;;3.40;99.90;;;3.16;100.00;100495.91;5252893;28;20068;-47
2024/01/16 09:54:24;;;;;;;1.52;1.30;;;3.40;99.90;;;3.16;100.00;100503.66;5252456;28;20048;-47
2024/01/16 09:57:00;;;;;;;10.90;1.33;;;3.40;99.90;;;3.18;100.00;100490.03;5230691;28;20048;-47
2024/01/16 09:59:33;;;;;;;1.65;0.90;;;3.40;99.90;;;3.26;100.00;100493.09;5248549;28;20053;-47
2024/01/16 10:02:06;;;;;;;5.30;0.82;;;3.40;99.90;;;3.32;100.00;100490.84;5235259;28;20041;-47
2024/01/16 10:04:40;;;;;;;1.52;0.98;;;3.50;99.90;;;3.39;100.00;100482.72;5246570;28;20076;-47
2024/01/16 10:07:15;;;;;;;5.25;1.35;;;3.60;99.90;;;3.44;100.00;100478.69;5242214;28;20052;-47
2024/01/16 10:09:47;;;;;;;1.75;1.02;;;3.60;99.90;;;3.47;100.00;100472.84;5245953;28;20080;-47
2024/01/16 10:12:20;;;;;;;1.88;1.10;;;3.60;99.90;;;3.52;100.00;100472.31;5237072;28;20049;-48
2024/01/16 10:14:52;;;;;;;1.63;1.13;;;3.70;99.90;;;3.59;100.00;100472.66;5246587;28;20351;-49
2024/01/16 10:17:37;;;;;;;1.90;1.20;;;3.70;99.90;;;3.62;100.00;100472.81;5232914;28;20041;-47
2024/01/16 10:20:14;;;;;;;0.75;0.70;;;3.70;99.90;;;3.60;100.00;100477.03;5232659;28;20498;-46
2024/01/16 10:22:54;;;;;;;2.35;1.00;;;3.70;99.90;;;3.61;100.00;100469.38;5238172;28;20049;-49
2024/01/16 10:25:26;;;;;;;1.13;1.00;;;3.80;99.90;;;3.64;100.00;100471.22;5233619;28;20041;-48
2024/01/16 10:28:09;;;;;;;0.95;0.63;;;3.80;99.90;;;3.65;100.00;100465.25;5232872;28;20048;-47
2024/01/16 10:30:42;;;;;;;5.47;1.23;;;3.80;99.90;;;3.68;100.00;100473.19;5247297;28;20049;-46
2024/01/16 10:33:16;;;;;;;4.32;1.20;;;3.80;99.90;;;3.71;100.00;100463.03;5238952;28;20102;-48
2024/01/16 10:35:50;;;;;;;2.88;1.88;;;3.80;99.90;;;3.72;100.00;100455.41;5232621;28;20100;-46
2024/01/16 10:38:23;;;;;;;5.97;1.50;;;3.90;99.90;;;3.98;100.00;100451.72;5236138;28;20049;-47
2024/01/16 10:41:07;;;;;;;2.45;1.00;;;4.10;99.90;;;4.02;100.00;100443.31;5252646;28;20060;-47
2024/01/16 10:43:40;;;;;;;1.73;0.98;;;4.20;99.90;;;4.07;100.00;100447.03;5240268;28;20048;-47